createdAt,value
2023-03-29T00:02:55.260Z,597.00
2023-03-29T00:06:56.236Z,600.00
2023-03-29T00:14:55.638Z,604.00
2023-03-29T00:22:55.535Z,601.00
2023-03-29T00:30:55.443Z,600.00
2023-03-29T00:38:55.328Z,604.00
2023-03-29T00:46:55.435Z,598.00
2023-03-29T00:54:55.322Z,599.00
2023-03-29T00:58:56.263Z,599.00
2023-03-29T01:02:56.260Z,596.00
2023-03-29T01:06:56.218Z,594.00
2023-03-29T01:10:56.265Z,592.00
2023-03-29T01:14:56.193Z,591.00
2023-03-29T01:18:56.117Z,593.00
2023-03-29T01:22:56.062Z,600.00
2023-03-29T01:26:55.972Z,590.00
2023-03-29T01:30:55.927Z,587.00
2023-03-29T01:34:55.862Z,588.00
2023-03-29T01:38:55.849Z,593.00
2023-03-29T01:42:55.883Z,595.00
2023-03-29T01:46:56.051Z,589.00
2023-03-29T01:50:56.209Z,588.00
2023-03-29T01:54:56.355Z,588.00
2023-03-29T01:58:56.467Z,592.00
2023-03-29T02:06:55.844Z,597.00
2023-03-29T02:14:56.204Z,596.00
2023-03-29T02:22:56.137Z,589.00
2023-03-29T02:26:57.081Z,585.00
2023-03-29T02:30:57.026Z,590.00
2023-03-29T02:34:56.965Z,594.00
2023-03-29T02:38:56.920Z,596.00
2023-03-29T02:42:57.015Z,596.00
2023-03-29T02:46:57.247Z,596.00
2023-03-29T02:50:57.346Z,588.00
2023-03-29T02:54:57.277Z,588.00
2023-03-29T02:58:57.747Z,586.00
2023-03-29T03:02:58.756Z,586.00
2023-03-29T03:06:57.101Z,581.00
2023-03-29T03:10:57.046Z,585.00
2023-03-29T03:14:57.013Z,582.00
2023-03-29T03:18:56.950Z,584.00
2023-03-29T03:22:56.853Z,580.00
2023-03-29T03:26:56.801Z,581.00
2023-03-29T03:30:56.923Z,581.00
2023-03-29T03:34:56.960Z,583.00
2023-03-29T03:38:57.114Z,582.00
2023-03-29T03:42:57.247Z,575.00
2023-03-29T03:46:57.310Z,571.00
2023-03-29T03:50:57.299Z,576.00
2023-03-29T03:54:57.393Z,568.00
2023-03-29T03:58:57.539Z,573.00
2023-03-29T04:02:57.730Z,570.00
2023-03-29T04:06:57.743Z,568.00
2023-03-29T04:10:57.756Z,571.00
2023-03-29T04:18:56.909Z,564.00
2023-03-29T04:22:57.867Z,564.00
2023-03-29T04:30:57.142Z,557.00
2023-03-29T04:38:57.747Z,564.00
2023-03-29T04:46:57.456Z,560.00
2023-03-29T04:54:57.681Z,564.00
2023-03-29T05:02:58.020Z,568.00
2023-03-29T05:10:58.258Z,566.00
2023-03-29T09:02:58.930Z,1504.00
2023-03-29T09:07:00.120Z,1606.00
2023-03-29T11:02:57.037Z,1787.00
2023-03-29T11:10:56.896Z,1660.00
2023-03-29T11:18:56.405Z,1782.00
2023-03-29T11:22:57.400Z,1803.00
2023-03-29T11:26:57.399Z,1828.00
2023-03-29T11:34:56.403Z,1883.00
2023-03-29T11:46:56.335Z,1950.00
2023-03-29T11:50:57.404Z,1977.00
2023-03-29T11:58:56.922Z,1985.00
2023-03-29T12:06:56.920Z,1752.00
2023-03-29T12:14:56.909Z,1138.00
2023-03-29T12:22:56.921Z,738.00
2023-03-29T12:30:57.432Z,1016.00
2023-03-29T12:42:56.946Z,1378.00
2023-03-29T12:50:56.488Z,1547.00
2023-03-29T12:54:57.457Z,1685.00
2023-03-29T12:58:57.461Z,1309.00
2023-03-29T13:02:57.477Z,1143.00
2023-03-29T13:10:55.915Z,996.00
2023-03-29T13:18:55.967Z,1120.00
2023-03-29T13:26:55.550Z,1127.00
2023-03-29T13:30:56.487Z,1128.00
2023-03-29T13:34:56.354Z,1128.00
2023-03-29T13:38:56.279Z,1124.00
2023-03-29T13:42:56.146Z,1127.00
2023-03-29T13:46:56.491Z,1114.00
2023-03-29T13:50:56.487Z,1105.00
2023-03-29T13:54:56.508Z,1102.00
2023-03-29T13:58:56.493Z,1105.00
2023-03-29T14:02:56.568Z,1096.00
2023-03-29T14:06:56.479Z,1090.00
2023-03-29T14:10:56.542Z,1089.00
2023-03-29T14:14:59.434Z,1085.00
2023-03-29T14:18:56.479Z,1078.00
2023-03-29T14:22:55.979Z,1077.00
2023-03-29T14:26:55.892Z,1077.00
2023-03-29T14:30:55.997Z,1076.00
2023-03-29T14:34:56.488Z,1064.00
2023-03-29T14:38:55.990Z,1062.00
2023-03-29T14:42:55.515Z,1057.00
2023-03-29T14:46:55.487Z,1049.00
2023-03-29T14:50:55.418Z,1052.00
2023-03-29T14:54:56.004Z,1045.00
2023-03-29T14:58:55.606Z,1037.00
2023-03-29T15:02:55.720Z,1032.00
2023-03-29T15:06:56.003Z,1027.00
2023-03-29T15:10:55.858Z,1022.00
2023-03-29T15:14:56.033Z,1029.00
2023-03-29T15:18:56.040Z,1027.00
2023-03-29T15:26:55.255Z,1012.00
2023-03-29T15:34:55.450Z,1007.00
2023-03-29T15:42:55.705Z,1001.00
2023-03-29T19:22:57.384Z,797.00
2023-03-29T19:30:57.699Z,796.00
2023-03-29T19:38:57.453Z,791.00
2023-03-29T19:46:57.425Z,794.00
2023-03-29T19:54:57.229Z,788.00
2023-03-29T20:02:57.263Z,789.00
2023-03-29T20:10:57.096Z,786.00
2023-03-29T20:14:58.042Z,782.00
2023-03-29T20:18:58.011Z,777.00
2023-03-29T20:22:57.940Z,777.00
2023-03-29T20:26:57.863Z,779.00
2023-03-29T20:30:57.928Z,774.00
2023-03-29T20:34:57.887Z,771.00
2023-03-29T20:38:57.974Z,773.00
2023-03-29T20:42:57.731Z,765.00
2023-03-29T20:46:57.653Z,757.00
2023-03-29T20:50:57.772Z,755.00
2023-03-29T20:54:57.561Z,754.00
2023-03-29T20:58:57.728Z,748.00
2023-03-29T21:02:57.782Z,748.00
2023-03-29T21:06:57.656Z,751.00
2023-03-29T21:10:57.579Z,743.00
2023-03-29T21:14:57.555Z,737.00
2023-03-29T21:18:57.509Z,738.00
2023-03-29T21:22:57.475Z,735.00
2023-03-29T21:26:57.378Z,741.00
2023-03-29T21:30:57.352Z,739.00
2023-03-29T21:34:57.291Z,733.00
2023-03-29T21:38:57.255Z,734.00
2023-03-29T21:42:57.173Z,728.00
2023-03-29T21:46:57.169Z,723.00
2023-03-29T21:50:57.234Z,720.00
2023-03-29T21:54:57.218Z,717.00
2023-03-29T21:58:57.133Z,717.00
2023-03-29T22:02:57.163Z,712.00
2023-03-29T22:06:57.056Z,712.00
2023-03-29T22:10:57.096Z,712.00
2023-03-29T22:14:56.988Z,706.00
2023-03-29T22:18:57.199Z,705.00
2023-03-29T22:22:57.156Z,701.00
2023-03-29T22:26:57.142Z,702.00
2023-03-29T22:30:57.065Z,703.00
2023-03-29T22:34:57.032Z,701.00
2023-03-29T22:38:56.994Z,702.00
2023-03-29T22:42:56.980Z,698.00
2023-03-29T22:46:57.171Z,700.00
2023-03-29T22:50:57.133Z,699.00
2023-03-29T22:54:57.102Z,698.00
2023-03-29T22:58:57.092Z,690.00
2023-03-29T23:02:57.155Z,696.00
2023-03-29T23:06:57.003Z,695.00
2023-03-29T23:56:51.696Z,678.00
